sensor_id;sensor_type;location;lat;lon;timestamp;P1;durP1;ratioP1;P2;durP2;ratioP2
19965;SDS011;10144;50.874;4.762;2023-07-08T00:00:14;6.88;;;3.65;;
19965;SDS011;10144;50.874;4.762;2023-07-08T00:02:48;7.80;;;3.75;;
19965;SDS011;10144;50.874;4.762;2023-07-08T00:05:17;9.15;;;3.83;;
19965;SDS011;10144;50.874;4.762;2023-07-08T00:07:45;10.68;;;4.30;;
19965;SDS011;10144;50.874;4.762;2023-07-08T00:10:12;10.80;;;3.97;;
19965;SDS011;10144;50.874;4.762;2023-07-08T00:12:41;9.73;;;3.97;;
19965;SDS011;10144;50.874;4.762;2023-07-08T00:15:08;8.27;;;4.38;;
19965;SDS011;10144;50.874;4.762;2023-07-08T00:17:35;9.45;;;4.50;;
19965;SDS011;10144;50.874;4.762;2023-07-08T00:20:04;12.23;;;4.40;;
19965;SDS011;10144;50.874;4.762;2023-07-08T00:22:40;9.30;;;4.38;;
19965;SDS011;10144;50.874;4.762;2023-07-08T00:25:07;9.27;;;4.00;;
19965;SDS011;10144;50.874;4.762;2023-07-08T00:27:34;12.45;;;4.88;;
19965;SDS011;10144;50.874;4.762;2023-07-08T00:30:07;12.15;;;4.60;;
19965;SDS011;10144;50.874;4.762;2023-07-08T00:32:52;8.07;;;4.47;;
19965;SDS011;10144;50.874;4.762;2023-07-08T00:35:21;9.43;;;4.53;;
19965;SDS011;10144;50.874;4.762;2023-07-08T00:37:51;9.80;;;4.50;;
19965;SDS011;10144;50.874;4.762;2023-07-08T00:40:26;12.38;;;4.65;;
19965;SDS011;10144;50.874;4.762;2023-07-08T00:42:59;13.65;;;4.75;;
19965;SDS011;10144;50.874;4.762;2023-07-08T00:45:45;8.57;;;4.40;;
19965;SDS011;10144;50.874;4.762;2023-07-08T00:48:24;23.83;;;5.10;;
19965;SDS011;10144;50.874;4.762;2023-07-08T00:50:55;10.15;;;4.40;;
19965;SDS011;10144;50.874;4.762;2023-07-08T00:53:26;15.65;;;4.28;;
19965;SDS011;10144;50.874;4.762;2023-07-08T00:56:09;9.15;;;4.45;;
19965;SDS011;10144;50.874;4.762;2023-07-08T01:01:22;9.00;;;4.10;;
19965;SDS011;10144;50.874;4.762;2023-07-08T01:03:59;12.32;;;4.65;;
19965;SDS011;10144;50.874;4.762;2023-07-08T01:06:36;13.23;;;5.03;;
19965;SDS011;10144;50.874;4.762;2023-07-08T01:09:06;11.57;;;4.63;;
19965;SDS011;10144;50.874;4.762;2023-07-08T01:11:35;10.00;;;4.55;;
19965;SDS011;10144;50.874;4.762;2023-07-08T01:14:02;11.82;;;4.72;;
19965;SDS011;10144;50.874;4.762;2023-07-08T01:16:32;9.32;;;4.30;;
19965;SDS011;10144;50.874;4.762;2023-07-08T01:18:59;12.27;;;5.22;;
19965;SDS011;10144;50.874;4.762;2023-07-08T01:21:31;11.13;;;5.13;;
19965;SDS011;10144;50.874;4.762;2023-07-08T01:23:59;10.80;;;4.80;;
19965;SDS011;10144;50.874;4.762;2023-07-08T01:26:29;9.48;;;4.95;;
19965;SDS011;10144;50.874;4.762;2023-07-08T01:28:57;11.55;;;5.20;;
19965;SDS011;10144;50.874;4.762;2023-07-08T01:31:24;10.63;;;5.03;;
19965;SDS011;10144;50.874;4.762;2023-07-08T01:33:52;11.40;;;5.25;;
19965;SDS011;10144;50.874;4.762;2023-07-08T01:36:18;11.10;;;5.30;;
19965;SDS011;10144;50.874;4.762;2023-07-08T01:38:44;9.63;;;4.80;;
19965;SDS011;10144;50.874;4.762;2023-07-08T01:41:14;14.90;;;5.43;;
19965;SDS011;10144;50.874;4.762;2023-07-08T01:43:41;12.63;;;5.50;;
19965;SDS011;10144;50.874;4.762;2023-07-08T01:46:15;11.00;;;5.20;;
19965;SDS011;10144;50.874;4.762;2023-07-08T01:48:48;11.40;;;5.53;;
19965;SDS011;10144;50.874;4.762;2023-07-08T01:51:19;12.38;;;5.88;;
19965;SDS011;10144;50.874;4.762;2023-07-08T01:53:47;12.75;;;5.60;;
19965;SDS011;10144;50.874;4.762;2023-07-08T01:56:13;15.15;;;5.63;;
19965;SDS011;10144;50.874;4.762;2023-07-08T01:58:39;14.02;;;5.97;;
19965;SDS011;10144;50.874;4.762;2023-07-08T02:01:07;17.63;;;6.28;;
19965;SDS011;10144;50.874;4.762;2023-07-08T02:03:33;14.40;;;5.82;;
19965;SDS011;10144;50.874;4.762;2023-07-08T02:05:59;13.13;;;5.68;;
19965;SDS011;10144;50.874;4.762;2023-07-08T02:08:25;15.38;;;6.55;;
19965;SDS011;10144;50.874;4.762;2023-07-08T02:10:52;12.98;;;6.10;;
19965;SDS011;10144;50.874;4.762;2023-07-08T02:13:19;12.65;;;5.75;;
19965;SDS011;10144;50.874;4.762;2023-07-08T02:15:47;13.10;;;5.88;;
19965;SDS011;10144;50.874;4.762;2023-07-08T02:18:15;14.60;;;6.20;;
19965;SDS011;10144;50.874;4.762;2023-07-08T02:20:42;14.05;;;6.18;;
19965;SDS011;10144;50.874;4.762;2023-07-08T02:23:08;12.20;;;6.05;;
19965;SDS011;10144;50.874;4.762;2023-07-08T02:25:34;13.02;;;5.80;;
19965;SDS011;10144;50.874;4.762;2023-07-08T02:28:02;16.52;;;6.32;;
19965;SDS011;10144;50.874;4.762;2023-07-08T02:30:34;12.32;;;6.38;;
19965;SDS011;10144;50.874;4.762;2023-07-08T02:33:00;11.57;;;6.18;;
19965;SDS011;10144;50.874;4.762;2023-07-08T02:35:29;15.77;;;6.57;;
19965;SDS011;10144;50.874;4.762;2023-07-08T02:37:56;12.07;;;6.32;;
19965;SDS011;10144;50.874;4.762;2023-07-08T02:40:23;13.88;;;5.93;;
19965;SDS011;10144;50.874;4.762;2023-07-08T02:42:49;12.63;;;6.18;;
19965;SDS011;10144;50.874;4.762;2023-07-08T02:45:15;16.13;;;6.18;;
19965;SDS011;10144;50.874;4.762;2023-07-08T02:47:43;17.85;;;6.63;;
19965;SDS011;10144;50.874;4.762;2023-07-08T02:50:09;10.93;;;5.78;;
19965;SDS011;10144;50.874;4.762;2023-07-08T02:52:37;10.90;;;5.85;;
19965;SDS011;10144;50.874;4.762;2023-07-08T02:55:04;11.43;;;5.50;;
19965;SDS011;10144;50.874;4.762;2023-07-08T02:57:30;16.10;;;6.15;;
19965;SDS011;10144;50.874;4.762;2023-07-08T02:59:56;14.27;;;6.68;;
19965;SDS011;10144;50.874;4.762;2023-07-08T03:04:51;12.18;;;5.82;;
19965;SDS011;10144;50.874;4.762;2023-07-08T03:07:20;12.05;;;6.07;;
19965;SDS011;10144;50.874;4.762;2023-07-08T03:09:46;13.25;;;6.28;;
19965;SDS011;10144;50.874;4.762;2023-07-08T03:12:11;11.40;;;5.75;;
19965;SDS011;10144;50.874;4.762;2023-07-08T03:14:37;11.15;;;6.10;;
19965;SDS011;10144;50.874;4.762;2023-07-08T03:17:03;12.50;;;6.22;;
19965;SDS011;10144;50.874;4.762;2023-07-08T03:19:29;10.88;;;5.78;;
19965;SDS011;10144;50.874;4.762;2023-07-08T03:21:55;14.85;;;6.22;;
19965;SDS011;10144;50.874;4.762;2023-07-08T03:24:22;13.82;;;6.03;;
19965;SDS011;10144;50.874;4.762;2023-07-08T03:26:48;14.73;;;6.30;;
19965;SDS011;10144;50.874;4.762;2023-07-08T03:29:19;12.73;;;6.30;;
19965;SDS011;10144;50.874;4.762;2023-07-08T03:31:45;15.07;;;6.50;;
19965;SDS011;10144;50.874;4.762;2023-07-08T03:34:11;14.20;;;6.97;;
19965;SDS011;10144;50.874;4.762;2023-07-08T03:36:45;14.40;;;6.82;;
19965;SDS011;10144;50.874;4.762;2023-07-08T03:39:19;12.13;;;6.78;;
19965;SDS011;10144;50.874;4.762;2023-07-08T03:41:50;12.05;;;6.40;;
19965;SDS011;10144;50.874;4.762;2023-07-08T03:44:17;15.15;;;6.35;;
19965;SDS011;10144;50.874;4.762;2023-07-08T03:46:44;15.45;;;6.72;;
19965;SDS011;10144;50.874;4.762;2023-07-08T03:49:11;12.95;;;6.10;;
19965;SDS011;10144;50.874;4.762;2023-07-08T03:51:38;12.23;;;6.13;;
19965;SDS011;10144;50.874;4.762;2023-07-08T03:54:05;13.77;;;6.25;;
19965;SDS011;10144;50.874;4.762;2023-07-08T03:56:31;14.75;;;6.55;;
19965;SDS011;10144;50.874;4.762;2023-07-08T03:58:58;15.23;;;6.28;;
19965;SDS011;10144;50.874;4.762;2023-07-08T04:01:24;10.73;;;6.50;;
19965;SDS011;10144;50.874;4.762;2023-07-08T04:03:55;15.57;;;6.57;;
19965;SDS011;10144;50.874;4.762;2023-07-08T04:06:22;13.32;;;6.55;;
19965;SDS011;10144;50.874;4.762;2023-07-08T04:08:48;14.55;;;6.18;;
19965;SDS011;10144;50.874;4.762;2023-07-08T04:11:16;12.07;;;6.75;;
19965;SDS011;10144;50.874;4.762;2023-07-08T04:13:44;13.85;;;6.68;;
19965;SDS011;10144;50.874;4.762;2023-07-08T04:16:21;14.05;;;6.60;;
19965;SDS011;10144;50.874;4.762;2023-07-08T04:18:50;13.88;;;6.88;;
19965;SDS011;10144;50.874;4.762;2023-07-08T04:21:20;13.93;;;6.00;;
19965;SDS011;10144;50.874;4.762;2023-07-08T04:23:53;15.82;;;6.80;;
19965;SDS011;10144;50.874;4.762;2023-07-08T04:26:22;16.02;;;6.55;;
19965;SDS011;10144;50.874;4.762;2023-07-08T04:31:16;12.63;;;6.63;;
19965;SDS011;10144;50.874;4.762;2023-07-08T04:33:44;13.38;;;6.38;;
19965;SDS011;10144;50.874;4.762;2023-07-08T04:36:16;17.00;;;6.78;;
19965;SDS011;10144;50.874;4.762;2023-07-08T04:38:42;12.77;;;6.45;;
19965;SDS011;10144;50.874;4.762;2023-07-08T04:41:12;15.45;;;6.65;;
19965;SDS011;10144;50.874;4.762;2023-07-08T04:43:38;11.65;;;6.43;;
19965;SDS011;10144;50.874;4.762;2023-07-08T04:46:04;13.35;;;6.72;;
19965;SDS011;10144;50.874;4.762;2023-07-08T04:48:44;17.00;;;6.25;;
19965;SDS011;10144;50.874;4.762;2023-07-08T04:51:16;13.50;;;6.18;;
19965;SDS011;10144;50.874;4.762;2023-07-08T04:53:44;15.07;;;6.13;;
19965;SDS011;10144;50.874;4.762;2023-07-08T04:56:15;11.75;;;5.97;;
19965;SDS011;10144;50.874;4.762;2023-07-08T04:58:41;15.52;;;6.60;;
19965;SDS011;10144;50.874;4.762;2023-07-08T05:01:07;17.92;;;6.63;;
19965;SDS011;10144;50.874;4.762;2023-07-08T05:03:39;15.10;;;6.72;;
19965;SDS011;10144;50.874;4.762;2023-07-08T05:06:06;11.70;;;5.90;;
19965;SDS011;10144;50.874;4.762;2023-07-08T05:08:34;12.02;;;6.30;;
19965;SDS011;10144;50.874;4.762;2023-07-08T05:11:02;14.20;;;6.07;;
19965;SDS011;10144;50.874;4.762;2023-07-08T05:13:28;14.10;;;6.57;;
19965;SDS011;10144;50.874;4.762;2023-07-08T05:15:54;12.60;;;6.40;;
19965;SDS011;10144;50.874;4.762;2023-07-08T05:18:20;15.95;;;6.95;;
19965;SDS011;10144;50.874;4.762;2023-07-08T05:20:52;12.13;;;6.63;;
19965;SDS011;10144;50.874;4.762;2023-07-08T05:23:20;12.60;;;6.03;;
19965;SDS011;10144;50.874;4.762;2023-07-08T05:25:47;15.05;;;6.00;;
19965;SDS011;10144;50.874;4.762;2023-07-08T05:28:14;12.38;;;6.20;;
19965;SDS011;10144;50.874;4.762;2023-07-08T05:30:40;13.23;;;6.07;;
19965;SDS011;10144;50.874;4.762;2023-07-08T05:33:07;11.35;;;6.28;;
19965;SDS011;10144;50.874;4.762;2023-07-08T05:35:37;12.48;;;6.22;;
19965;SDS011;10144;50.874;4.762;2023-07-08T05:38:02;15.38;;;6.22;;
19965;SDS011;10144;50.874;4.762;2023-07-08T05:40:28;13.65;;;6.32;;
19965;SDS011;10144;50.874;4.762;2023-07-08T05:42:54;13.70;;;6.35;;
19965;SDS011;10144;50.874;4.762;2023-07-08T05:45:20;15.70;;;6.78;;
19965;SDS011;10144;50.874;4.762;2023-07-08T05:47:45;12.38;;;6.10;;
19965;SDS011;10144;50.874;4.762;2023-07-08T05:50:11;14.75;;;6.13;;
19965;SDS011;10144;50.874;4.762;2023-07-08T05:52:38;11.20;;;6.25;;
19965;SDS011;10144;50.874;4.762;2023-07-08T05:55:04;11.15;;;5.80;;
19965;SDS011;10144;50.874;4.762;2023-07-08T05:57:30;12.18;;;6.13;;
19965;SDS011;10144;50.874;4.762;2023-07-08T05:59:55;10.48;;;5.97;;
19965;SDS011;10144;50.874;4.762;2023-07-08T06:02:21;11.23;;;5.80;;
19965;SDS011;10144;50.874;4.762;2023-07-08T06:04:50;13.93;;;6.22;;
19965;SDS011;10144;50.874;4.762;2023-07-08T06:07:17;14.40;;;6.35;;
19965;SDS011;10144;50.874;4.762;2023-07-08T06:09:43;15.77;;;6.28;;
19965;SDS011;10144;50.874;4.762;2023-07-08T06:12:09;15.93;;;6.55;;
19965;SDS011;10144;50.874;4.762;2023-07-08T06:14:35;11.63;;;6.10;;
19965;SDS011;10144;50.874;4.762;2023-07-08T06:17:01;11.95;;;6.30;;
19965;SDS011;10144;50.874;4.762;2023-07-08T06:19:28;11.75;;;6.10;;
19965;SDS011;10144;50.874;4.762;2023-07-08T06:21:53;12.63;;;6.60;;
19965;SDS011;10144;50.874;4.762;2023-07-08T06:24:19;13.05;;;6.93;;
19965;SDS011;10144;50.874;4.762;2023-07-08T06:26:47;16.02;;;7.05;;
19965;SDS011;10144;50.874;4.762;2023-07-08T06:29:13;11.35;;;6.07;;
19965;SDS011;10144;50.874;4.762;2023-07-08T06:31:41;13.55;;;6.00;;
19965;SDS011;10144;50.874;4.762;2023-07-08T06:34:07;11.95;;;6.15;;
19965;SDS011;10144;50.874;4.762;2023-07-08T06:36:36;17.20;;;6.50;;
19965;SDS011;10144;50.874;4.762;2023-07-08T06:39:01;13.52;;;6.35;;
19965;SDS011;10144;50.874;4.762;2023-07-08T06:41:27;12.93;;;5.95;;
19965;SDS011;10144;50.874;4.762;2023-07-08T06:43:53;12.80;;;6.55;;
19965;SDS011;10144;50.874;4.762;2023-07-08T06:46:19;13.48;;;6.47;;
19965;SDS011;10144;50.874;4.762;2023-07-08T06:48:46;13.27;;;6.18;;
19965;SDS011;10144;50.874;4.762;2023-07-08T06:51:12;13.90;;;6.05;;
19965;SDS011;10144;50.874;4.762;2023-07-08T06:53:39;11.15;;;6.07;;
19965;SDS011;10144;50.874;4.762;2023-07-08T06:56:06;12.80;;;6.93;;
19965;SDS011;10144;50.874;4.762;2023-07-08T06:58:33;14.40;;;7.10;;
19965;SDS011;10144;50.874;4.762;2023-07-08T07:00:59;12.48;;;6.47;;
19965;SDS011;10144;50.874;4.762;2023-07-08T07:03:27;16.48;;;6.55;;
19965;SDS011;10144;50.874;4.762;2023-07-08T07:05:52;11.30;;;6.75;;
19965;SDS011;10144;50.874;4.762;2023-07-08T07:08:18;12.15;;;6.60;;
19965;SDS011;10144;50.874;4.762;2023-07-08T07:10:43;15.18;;;7.30;;
19965;SDS011;10144;50.874;4.762;2023-07-08T07:13:09;10.88;;;6.65;;
19965;SDS011;10144;50.874;4.762;2023-07-08T07:15:35;14.32;;;7.15;;
19965;SDS011;10144;50.874;4.762;2023-07-08T07:18:01;12.52;;;7.15;;
19965;SDS011;10144;50.874;4.762;2023-07-08T07:20:28;13.30;;;6.65;;
19965;SDS011;10144;50.874;4.762;2023-07-08T07:22:54;12.13;;;6.75;;
19965;SDS011;10144;50.874;4.762;2023-07-08T07:25:20;14.35;;;6.70;;
19965;SDS011;10144;50.874;4.762;2023-07-08T07:27:45;14.57;;;6.82;;
19965;SDS011;10144;50.874;4.762;2023-07-08T07:30:11;15.65;;;7.00;;
19965;SDS011;10144;50.874;4.762;2023-07-08T07:32:43;17.83;;;6.93;;
19965;SDS011;10144;50.874;4.762;2023-07-08T07:35:09;14.88;;;7.32;;
19965;SDS011;10144;50.874;4.762;2023-07-08T07:37:40;11.23;;;7.20;;
19965;SDS011;10144;50.874;4.762;2023-07-08T07:40:07;13.52;;;7.40;;
19965;SDS011;10144;50.874;4.762;2023-07-08T07:42:37;13.30;;;7.00;;
19965;SDS011;10144;50.874;4.762;2023-07-08T07:45:04;14.27;;;7.28;;
19965;SDS011;10144;50.874;4.762;2023-07-08T07:47:31;12.10;;;7.18;;
19965;SDS011;10144;50.874;4.762;2023-07-08T07:49:56;12.77;;;7.45;;
19965;SDS011;10144;50.874;4.762;2023-07-08T07:52:29;12.15;;;7.07;;
19965;SDS011;10144;50.874;4.762;2023-07-08T07:54:55;15.55;;;7.68;;
19965;SDS011;10144;50.874;4.762;2023-07-08T07:57:21;14.75;;;7.70;;
19965;SDS011;10144;50.874;4.762;2023-07-08T07:59:49;12.82;;;7.32;;
19965;SDS011;10144;50.874;4.762;2023-07-08T08:02:16;15.77;;;7.95;;
19965;SDS011;10144;50.874;4.762;2023-07-08T08:04:43;13.73;;;7.50;;
19965;SDS011;10144;50.874;4.762;2023-07-08T08:07:10;13.77;;;7.22;;
19965;SDS011;10144;50.874;4.762;2023-07-08T08:09:36;12.80;;;7.75;;
19965;SDS011;10144;50.874;4.762;2023-07-08T08:12:03;15.43;;;8.32;;
19965;SDS011;10144;50.874;4.762;2023-07-08T08:14:29;12.23;;;7.78;;
19965;SDS011;10144;50.874;4.762;2023-07-08T08:16:55;16.67;;;7.70;;
19965;SDS011;10144;50.874;4.762;2023-07-08T08:19:20;13.77;;;7.45;;
19965;SDS011;10144;50.874;4.762;2023-07-08T08:21:47;12.95;;;7.60;;
19965;SDS011;10144;50.874;4.762;2023-07-08T08:24:13;12.82;;;7.53;;
19965;SDS011;10144;50.874;4.762;2023-07-08T08:26:38;11.60;;;7.60;;
19965;SDS011;10144;50.874;4.762;2023-07-08T08:29:04;15.38;;;8.35;;
19965;SDS011;10144;50.874;4.762;2023-07-08T08:31:30;14.48;;;8.05;;
19965;SDS011;10144;50.874;4.762;2023-07-08T08:33:56;13.25;;;7.97;;
19965;SDS011;10144;50.874;4.762;2023-07-08T08:36:22;15.63;;;7.82;;
19965;SDS011;10144;50.874;4.762;2023-07-08T08:38:47;17.75;;;7.70;;
19965;SDS011;10144;50.874;4.762;2023-07-08T08:41:14;13.68;;;7.32;;
19965;SDS011;10144;50.874;4.762;2023-07-08T08:43:42;17.77;;;8.10;;
19965;SDS011;10144;50.874;4.762;2023-07-08T08:51:58;14.75;;;7.68;;
19965;SDS011;10144;50.874;4.762;2023-07-08T08:54:24;12.57;;;7.38;;
19965;SDS011;10144;50.874;4.762;2023-07-08T09:05:05;12.68;;;7.65;;
19965;SDS011;10144;50.874;4.762;2023-07-08T09:10:44;12.02;;;7.50;;
19965;SDS011;10144;50.874;4.762;2023-07-08T09:13:36;13.73;;;7.90;;
19965;SDS011;10144;50.874;4.762;2023-07-08T09:19:00;12.95;;;7.68;;
19965;SDS011;10144;50.874;4.762;2023-07-08T09:24:31;14.90;;;8.05;;
19965;SDS011;10144;50.874;4.762;2023-07-08T09:27:13;14.95;;;8.45;;
19965;SDS011;10144;50.874;4.762;2023-07-08T09:29:38;15.27;;;8.23;;
19965;SDS011;10144;50.874;4.762;2023-07-08T09:32:20;14.82;;;8.00;;
19965;SDS011;10144;50.874;4.762;2023-07-08T09:34:52;18.08;;;7.80;;
19965;SDS011;10144;50.874;4.762;2023-07-08T09:39:48;14.43;;;8.30;;
19965;SDS011;10144;50.874;4.762;2023-07-08T09:42:14;16.02;;;8.30;;
19965;SDS011;10144;50.874;4.762;2023-07-08T09:44:41;16.42;;;8.15;;
19965;SDS011;10144;50.874;4.762;2023-07-08T09:47:20;11.85;;;7.53;;
19965;SDS011;10144;50.874;4.762;2023-07-08T09:49:48;16.60;;;8.02;;
19965;SDS011;10144;50.874;4.762;2023-07-08T09:52:14;13.63;;;7.93;;
19965;SDS011;10144;50.874;4.762;2023-07-08T09:54:42;12.80;;;7.88;;
19965;SDS011;10144;50.874;4.762;2023-07-08T09:57:31;14.90;;;7.90;;
19965;SDS011;10144;50.874;4.762;2023-07-08T10:00:01;13.45;;;8.13;;
19965;SDS011;10144;50.874;4.762;2023-07-08T10:02:33;13.68;;;7.97;;
19965;SDS011;10144;50.874;4.762;2023-07-08T10:08:20;15.48;;;8.43;;
19965;SDS011;10144;50.874;4.762;2023-07-08T10:10:48;12.15;;;7.63;;
19965;SDS011;10144;50.874;4.762;2023-07-08T10:13:24;15.25;;;8.27;;
19965;SDS011;10144;50.874;4.762;2023-07-08T10:15:54;15.35;;;8.18;;
19965;SDS011;10144;50.874;4.762;2023-07-08T10:18:29;18.38;;;8.32;;
19965;SDS011;10144;50.874;4.762;2023-07-08T10:21:04;16.38;;;8.10;;
19965;SDS011;10144;50.874;4.762;2023-07-08T10:23:48;12.88;;;7.30;;
19965;SDS011;10144;50.874;4.762;2023-07-08T10:32:16;11.68;;;7.90;;
19965;SDS011;10144;50.874;4.762;2023-07-08T10:35:18;17.27;;;7.68;;
19965;SDS011;10144;50.874;4.762;2023-07-08T10:40:44;19.45;;;8.13;;
19965;SDS011;10144;50.874;4.762;2023-07-08T10:46:26;15.52;;;7.82;;
19965;SDS011;10144;50.874;4.762;2023-07-08T10:54:58;13.77;;;7.60;;
19965;SDS011;10144;50.874;4.762;2023-07-08T11:00:27;12.23;;;7.38;;
19965;SDS011;10144;50.874;4.762;2023-07-08T11:08:31;18.38;;;8.32;;
19965;SDS011;10144;50.874;4.762;2023-07-08T11:11:23;15.80;;;7.50;;
19965;SDS011;10144;50.874;4.762;2023-07-08T11:14:26;11.35;;;7.53;;
19965;SDS011;10144;50.874;4.762;2023-07-08T11:19:45;10.85;;;7.20;;
19965;SDS011;10144;50.874;4.762;2023-07-08T11:22:17;13.45;;;7.07;;
19965;SDS011;10144;50.874;4.762;2023-07-08T11:27:30;15.65;;;7.10;;
19965;SDS011;10144;50.874;4.762;2023-07-08T11:30:11;15.70;;;7.13;;
19965;SDS011;10144;50.874;4.762;2023-07-08T11:32:39;14.90;;;7.15;;
19965;SDS011;10144;50.874;4.762;2023-07-08T11:35:18;13.07;;;7.13;;
19965;SDS011;10144;50.874;4.762;2023-07-08T11:37:46;14.70;;;7.40;;
19965;SDS011;10144;50.874;4.762;2023-07-08T11:40:20;14.70;;;7.57;;
19965;SDS011;10144;50.874;4.762;2023-07-08T11:42:48;11.45;;;6.88;;
19965;SDS011;10144;50.874;4.762;2023-07-08T11:45:23;14.05;;;7.35;;
19965;SDS011;10144;50.874;4.762;2023-07-08T11:47:54;17.25;;;7.22;;
19965;SDS011;10144;50.874;4.762;2023-07-08T11:50:31;37.20;;;9.55;;
19965;SDS011;10144;50.874;4.762;2023-07-08T11:53:03;12.88;;;7.68;;
19965;SDS011;10144;50.874;4.762;2023-07-08T11:55:37;11.52;;;7.10;;
19965;SDS011;10144;50.874;4.762;2023-07-08T11:58:21;14.50;;;7.40;;
19965;SDS011;10144;50.874;4.762;2023-07-08T12:00:57;12.50;;;6.70;;
19965;SDS011;10144;50.874;4.762;2023-07-08T12:03:31;14.57;;;7.25;;
19965;SDS011;10144;50.874;4.762;2023-07-08T12:07:03;11.52;;;7.03;;
19965;SDS011;10144;50.874;4.762;2023-07-08T12:09:26;15.93;;;7.70;;
19965;SDS011;10144;50.874;4.762;2023-07-08T12:11:59;15.18;;;6.65;;
19965;SDS011;10144;50.874;4.762;2023-07-08T12:14:27;15.23;;;7.15;;
19965;SDS011;10144;50.874;4.762;2023-07-08T12:16:54;14.98;;;7.15;;
19965;SDS011;10144;50.874;4.762;2023-07-08T12:19:20;12.35;;;7.72;;
19965;SDS011;10144;50.874;4.762;2023-07-08T12:21:50;14.95;;;7.60;;
19965;SDS011;10144;50.874;4.762;2023-07-08T12:24:17;14.32;;;7.60;;
19965;SDS011;10144;50.874;4.762;2023-07-08T12:26:43;17.00;;;7.03;;
19965;SDS011;10144;50.874;4.762;2023-07-08T12:29:13;16.60;;;7.40;;
19965;SDS011;10144;50.874;4.762;2023-07-08T12:31:39;13.40;;;6.43;;
19965;SDS011;10144;50.874;4.762;2023-07-08T12:34:10;10.45;;;6.53;;
19965;SDS011;10144;50.874;4.762;2023-07-08T12:36:40;14.75;;;7.57;;
19965;SDS011;10144;50.874;4.762;2023-07-08T12:39:08;14.40;;;6.88;;
19965;SDS011;10144;50.874;4.762;2023-07-08T12:41:39;16.92;;;7.60;;
19965;SDS011;10144;50.874;4.762;2023-07-08T12:44:08;13.68;;;7.38;;
19965;SDS011;10144;50.874;4.762;2023-07-08T12:46:47;11.68;;;6.30;;
19965;SDS011;10144;50.874;4.762;2023-07-08T12:49:14;11.48;;;6.35;;
19965;SDS011;10144;50.874;4.762;2023-07-08T12:51:45;11.13;;;6.47;;
19965;SDS011;10144;50.874;4.762;2023-07-08T12:54:11;14.45;;;6.90;;
19965;SDS011;10144;50.874;4.762;2023-07-08T12:56:38;12.32;;;6.38;;
19965;SDS011;10144;50.874;4.762;2023-07-08T12:59:07;13.50;;;6.40;;
19965;SDS011;10144;50.874;4.762;2023-07-08T13:01:34;11.82;;;5.88;;
19965;SDS011;10144;50.874;4.762;2023-07-08T13:04:02;10.77;;;5.20;;
19965;SDS011;10144;50.874;4.762;2023-07-08T13:06:31;12.07;;;5.13;;
19965;SDS011;10144;50.874;4.762;2023-07-08T13:09:42;9.73;;;4.38;;
19965;SDS011;10144;50.874;4.762;2023-07-08T13:11:53;10.55;;;4.03;;
19965;SDS011;10144;50.874;4.762;2023-07-08T13:14:21;11.52;;;3.47;;
19965;SDS011;10144;50.874;4.762;2023-07-08T13:16:49;8.25;;;3.53;;
19965;SDS011;10144;50.874;4.762;2023-07-08T13:19:15;11.57;;;3.28;;
19965;SDS011;10144;50.874;4.762;2023-07-08T13:21:41;7.57;;;2.85;;
19965;SDS011;10144;50.874;4.762;2023-07-08T13:24:11;8.90;;;3.30;;
19965;SDS011;10144;50.874;4.762;2023-07-08T13:26:37;7.85;;;3.00;;
19965;SDS011;10144;50.874;4.762;2023-07-08T13:29:11;5.57;;;2.92;;
19965;SDS011;10144;50.874;4.762;2023-07-08T13:31:40;6.95;;;2.58;;
19965;SDS011;10144;50.874;4.762;2023-07-08T13:34:15;7.47;;;2.40;;
19965;SDS011;10144;50.874;4.762;2023-07-08T13:36:44;4.63;;;2.42;;
19965;SDS011;10144;50.874;4.762;2023-07-08T13:39:15;5.53;;;3.05;;
19965;SDS011;10144;50.874;4.762;2023-07-08T13:41:45;6.97;;;2.60;;
19965;SDS011;10144;50.874;4.762;2023-07-08T13:44:11;9.20;;;2.85;;
19965;SDS011;10144;50.874;4.762;2023-07-08T13:49:12;7.32;;;2.75;;
19965;SDS011;10144;50.874;4.762;2023-07-08T13:51:50;8.32;;;3.08;;
19965;SDS011;10144;50.874;4.762;2023-07-08T13:56:45;8.15;;;4.35;;
19965;SDS011;10144;50.874;4.762;2023-07-08T13:59:15;7.60;;;4.05;;
19965;SDS011;10144;50.874;4.762;2023-07-08T14:01:47;11.35;;;4.43;;
19965;SDS011;10144;50.874;4.762;2023-07-08T14:04:17;6.47;;;3.95;;
19965;SDS011;10144;50.874;4.762;2023-07-08T14:06:45;10.68;;;4.47;;
19965;SDS011;10144;50.874;4.762;2023-07-08T14:09:16;9.25;;;4.50;;
19965;SDS011;10144;50.874;4.762;2023-07-08T14:11:44;9.27;;;3.75;;
19965;SDS011;10144;50.874;4.762;2023-07-08T14:14:10;8.27;;;4.53;;
19965;SDS011;10144;50.874;4.762;2023-07-08T14:16:41;11.43;;;4.43;;
19965;SDS011;10144;50.874;4.762;2023-07-08T14:19:22;12.15;;;4.35;;
19965;SDS011;10144;50.874;4.762;2023-07-08T14:21:52;11.80;;;3.95;;
19965;SDS011;10144;50.874;4.762;2023-07-08T14:24:21;9.00;;;4.75;;
19965;SDS011;10144;50.874;4.762;2023-07-08T14:26:46;10.27;;;4.70;;
19965;SDS011;10144;50.874;4.762;2023-07-08T14:29:12;11.27;;;4.35;;
19965;SDS011;10144;50.874;4.762;2023-07-08T14:31:38;9.35;;;4.55;;
19965;SDS011;10144;50.874;4.762;2023-07-08T14:34:06;11.65;;;4.40;;
19965;SDS011;10144;50.874;4.762;2023-07-08T14:36:33;12.95;;;4.40;;
19965;SDS011;10144;50.874;4.762;2023-07-08T14:38:59;12.60;;;4.68;;
19965;SDS011;10144;50.874;4.762;2023-07-08T14:41:26;8.52;;;4.50;;
19965;SDS011;10144;50.874;4.762;2023-07-08T14:43:52;11.50;;;4.63;;
19965;SDS011;10144;50.874;4.762;2023-07-08T14:46:19;10.30;;;4.40;;
19965;SDS011;10144;50.874;4.762;2023-07-08T14:48:45;11.57;;;4.70;;
19965;SDS011;10144;50.874;4.762;2023-07-08T14:51:10;11.90;;;5.05;;
19965;SDS011;10144;50.874;4.762;2023-07-08T14:53:36;11.80;;;4.40;;
19965;SDS011;10144;50.874;4.762;2023-07-08T14:56:05;8.07;;;4.35;;
19965;SDS011;10144;50.874;4.762;2023-07-08T14:58:44;8.68;;;4.10;;
19965;SDS011;10144;50.874;4.762;2023-07-08T15:01:16;7.75;;;4.63;;
19965;SDS011;10144;50.874;4.762;2023-07-08T15:03:44;9.82;;;4.63;;
19965;SDS011;10144;50.874;4.762;2023-07-08T15:06:10;8.88;;;4.50;;
19965;SDS011;10144;50.874;4.762;2023-07-08T15:08:37;11.63;;;4.68;;
19965;SDS011;10144;50.874;4.762;2023-07-08T15:11:04;9.23;;;5.00;;
19965;SDS011;10144;50.874;4.762;2023-07-08T15:13:33;7.10;;;4.90;;
19965;SDS011;10144;50.874;4.762;2023-07-08T15:16:00;11.27;;;4.80;;
19965;SDS011;10144;50.874;4.762;2023-07-08T15:18:26;8.95;;;4.60;;
19965;SDS011;10144;50.874;4.762;2023-07-08T15:20:52;9.00;;;4.47;;
19965;SDS011;10144;50.874;4.762;2023-07-08T15:23:17;12.65;;;5.10;;
19965;SDS011;10144;50.874;4.762;2023-07-08T15:25:44;12.35;;;5.22;;
19965;SDS011;10144;50.874;4.762;2023-07-08T15:28:16;10.40;;;5.03;;
19965;SDS011;10144;50.874;4.762;2023-07-08T15:30:45;10.73;;;5.38;;
19965;SDS011;10144;50.874;4.762;2023-07-08T15:33:12;12.65;;;5.30;;
19965;SDS011;10144;50.874;4.762;2023-07-08T15:35:40;62.85;;;6.85;;
19965;SDS011;10144;50.874;4.762;2023-07-08T15:38:06;14.85;;;4.78;;
19965;SDS011;10144;50.874;4.762;2023-07-08T15:40:31;9.80;;;4.95;;
19965;SDS011;10144;50.874;4.762;2023-07-08T15:42:59;9.45;;;4.70;;
19965;SDS011;10144;50.874;4.762;2023-07-08T15:45:35;11.10;;;5.20;;
19965;SDS011;10144;50.874;4.762;2023-07-08T15:48:07;11.20;;;5.03;;
19965;SDS011;10144;50.874;4.762;2023-07-08T15:50:38;13.43;;;5.10;;
19965;SDS011;10144;50.874;4.762;2023-07-08T15:53:04;10.50;;;5.10;;
19965;SDS011;10144;50.874;4.762;2023-07-08T15:55:30;12.32;;;6.10;;
19965;SDS011;10144;50.874;4.762;2023-07-08T15:58:03;11.25;;;6.15;;
19965;SDS011;10144;50.874;4.762;2023-07-08T16:00:31;12.30;;;6.18;;